Hermanville, MS (39086)

12:21 AM CDT on July 11, 2014 (GMT -0500)
Vicksburg Municipal (KVKS) Elev 105 ft | 32.24 °N, 90.93 °W | Change Station

Current weather conditions updated 6 minutes ago

Mostly Cloudy
Mostly Cloudy
73 °F
Feels Like 73 °F
N
5
Wind Variable Wind from South

Today is forecast to be Warmer than yesterday. Scattered thunderstorms possible.

Today
High -- | Low -- °F
--% Chance of Precip.
Yesterday
High -- | Low -- °F
Precip. -- in
6:05 AM 8:11 PM
Waxing Gibbous, 98% visible
Pressure 30.10 in
Visibility 10.0 miles
Clouds Mostly Cloudy 4900 ft
Mostly Cloudy 5500 ft
Dew Point 72 °F
Humidity 94%
Rainfall 0.00 in
Snow Depth Not available.
UV 0 out of 12
Pollen 2.80 out of 12
Air Quality Not available.
Flu Activity No Activity
METAR KVKS 110515Z AUTO 17004KT 10SM BKN049 BKN055 23/22 A3010 RMK A01

More Conditions Fewer Conditions

Pressure 30.10 in
Visibility 10.0 miles
Clouds Mostly Cloudy 4900 ft
Mostly Cloudy 5500 ft
Dew Point 72 °F
Humidity 94%
Rainfall 0.00 in
Snow Depth Not available.
UV 0 out of 12
Pollen 2.80 out of 12
Air Quality Not available.
Flu Activity No Activity
METAR KVKS 110515Z AUTO 17004KT 10SM BKN049 BKN055 23/22 A3010 RMK A01

More Conditions Fewer Conditions

10-Day Weather Forecast

Almanac

Astronomy

Jul. 11, 2014 Rise Set
Actual Time 6:05 AM CDT 8:11 PM CDT
Civil Twilight 5:37 AM CDT 8:39 PM CDT
Nautical Twilight 5:03 AM CDT 9:13 PM CDT
Astronomical Twilight 4:27 AM CDT 9:49 PM CDT
Moon 7:26 PM CDT 5:14 AM CDT
Length of Visible Light 15h 01m
Length of Day
14h 06m
Tomorrow will be 0m 52s shorter.
Waxing Gibbous, 98% of the Moon is Illuminated
Today
Waxing Gibbous
Jul 12
Full
Jul 18
Last Quarter
Jul 26
New
Aug 3
First Quarter

Today's Extremes

State Highs State Lows

Community

WunderPhotos

Upload Photos

1,732,397 photos uploaded!

Nearby

Snow Depth

Station Depth Elevation
No new snow has been reported.

Earthquake Activity

City Distance Mag. Time & Date
No recent earthquake activity has been reported nearby.
Minimum magnitude displayed is 2.5.

Coastal Water Temperatures

Place Temperature
No Stations Reporting

Nearby Weather Stations

Station Location Temp. Heat Index Dew Point Humidity Wind Precip. Elev Updated Type
DANA RD 1, Vicksburg, MS 71.8 °F - 72 °F 99% SE  at  1.7 mph - / hr 243 ft 12:11 AM CDT Normal
Union Church, MS 74.3 °F 72 °F 73 °F 95% NNE  at  0.0 mph 0.00 in / hr 515 ft 12:20 AM CDT Normal
Tank, Crystal Springs, MS 72.3 °F - 71 °F 96% SE  at  0.0 mph - / hr 338 ft 12:08 AM CDT Normal

Show More Stations Show Fewer Stations